الصفحة الرئيسية
METAR-TAF:

METAR-TAF

مطار :

كايين, جويانا الفرنسية

دائرة عرض: 04-50N, خط طول: 052-22W, ارتفاع: 105 متر

مراقبة الطقس الحالي

تاريخ ووقت الإصدار 22 دقيقة قبل الساعة 12:30UTC
ريح 10 عقدة من الشرق/الشمال الشرقي
درجة الحرارة 28°درجة مئوية
الرطوبة 74%
ضغط 1014 hPa
الرؤية 10 كم أو أكثر
غيوم قليلة على ارتفاع 3900 قدم

METAR: SOCA 201230Z AUTO 06010KT 9999 FEW039 28/23 Q1014 TEMPO 4000 SHRA FEW013TCU

زمن: 09:52 (12:52 UTC)

توقعات

تاريخ ووقت الإصدار 1ساعة و 52 دقيقة قبل الساعة 11:00UTC
التوقعات صالحة من20 الساعة 12 UTC إلى 21 الساعة 12 UTC
ريح 12 عقدة من الشرق
الرؤية 10 كم أو أكثر
غيوم قليلة على ارتفاع 2000 قدم
غيوم متفرقة على ارتفاع 5000 قدم
نظرية الاحتمالات 30% :
مؤقت
من 20 الساعة 14 UTC إلى 20 الساعة 21 UTC
الرؤية: 4000 متر
غيوم قليلة على ارتفاع 1300 قدم, مزن ركامية عمودية.
زخات من المطر
أصبح
من 20 الساعة 23 UTC إلى 21 الساعة 01 UTC
ريح 2 عقدةمن اتجاهات متغيرة

TAF: SOCA 201100Z 2012/2112 08012KT 9999 FEW020 SCT050 PROB30 TEMPO 2014/2021 4000 SHRA FEW013TCU BECMG 2023/2101 VRB02KT

أرصاد الطقس والتوقعات من أكثر من 4000 مطار (تقارير الطقس للمطار METAR والتنبؤ بالطقس بالمطارTAF).

المحطات المتاحة هي النقط الصفراء والحمراء على الخريطة.

حرك المؤشر فوق النقطة لمعرفة اسم المحطة.

ثم انقر لمعرفة أرصاد وتوقعات الطقس.

لتغيير الخارطة: اضغط على الأزرار الخضراء مع رمز الصليب الأسود للتكبير. على الزر الأخضر مع شرطة للتصغير، أو على الأسهم الخضراء للخرائط المجاورة.


METAR-TAF: